sensor_id;sensor_type;location;lat;lon;timestamp;temperature;humidity
47658;DHT22;33958;48.404;10.598;2022-07-03T00:01:35;13.40;99.90
47658;DHT22;33958;48.404;10.598;2022-07-03T00:04:02;13.40;99.90
47658;DHT22;33958;48.404;10.598;2022-07-03T00:06:30;13.40;99.90
47658;DHT22;33958;48.404;10.598;2022-07-03T00:08:59;13.60;99.90
47658;DHT22;33958;48.404;10.598;2022-07-03T00:11:26;13.50;99.90
47658;DHT22;33958;48.404;10.598;2022-07-03T00:13:53;13.40;99.90
47658;DHT22;33958;48.404;10.598;2022-07-03T00:16:20;13.30;99.90
47658;DHT22;33958;48.404;10.598;2022-07-03T00:18:47;13.40;99.90
47658;DHT22;33958;48.404;10.598;2022-07-03T00:21:33;13.50;99.90
47658;DHT22;33958;48.404;10.598;2022-07-03T00:24:04;13.40;99.90
47658;DHT22;33958;48.404;10.598;2022-07-03T00:26:34;13.50;99.90
47658;DHT22;33958;48.404;10.598;2022-07-03T00:29:03;13.60;99.90
47658;DHT22;33958;48.404;10.598;2022-07-03T00:31:31;13.60;99.90
47658;DHT22;33958;48.404;10.598;2022-07-03T00:34:00;13.50;99.90
47658;DHT22;33958;48.404;10.598;2022-07-03T00:36:37;13.20;99.90
47658;DHT22;33958;48.404;10.598;2022-07-03T00:39:05;13.30;99.90
47658;DHT22;33958;48.404;10.598;2022-07-03T00:41:34;13.40;99.90
47658;DHT22;33958;48.404;10.598;2022-07-03T00:44:02;13.40;99.90
47658;DHT22;33958;48.404;10.598;2022-07-03T00:46:30;12.90;99.90
47658;DHT22;33958;48.404;10.598;2022-07-03T00:48:58;12.60;99.90
47658;DHT22;33958;48.404;10.598;2022-07-03T00:51:28;12.50;99.90
47658;DHT22;33958;48.404;10.598;2022-07-03T00:53:57;12.40;99.90
47658;DHT22;33958;48.404;10.598;2022-07-03T00:56:29;12.40;99.90
47658;DHT22;33958;48.404;10.598;2022-07-03T00:58:58;12.40;99.90
47658;DHT22;33958;48.404;10.598;2022-07-03T01:01:31;12.30;99.90
47658;DHT22;33958;48.404;10.598;2022-07-03T01:04:22;12.40;99.90
47658;DHT22;33958;48.404;10.598;2022-07-03T01:07:06;12.60;99.90
47658;DHT22;33958;48.404;10.598;2022-07-03T01:10:05;12.60;99.90
47658;DHT22;33958;48.404;10.598;2022-07-03T01:13:00;12.60;99.90
47658;DHT22;33958;48.404;10.598;2022-07-03T01:15:59;12.60;99.90
47658;DHT22;33958;48.404;10.598;2022-07-03T01:18:35;12.60;99.90
47658;DHT22;33958;48.404;10.598;2022-07-03T01:21:11;12.50;99.90
47658;DHT22;33958;48.404;10.598;2022-07-03T01:24:17;12.60;99.90
47658;DHT22;33958;48.404;10.598;2022-07-03T01:26:55;12.50;99.90
47658;DHT22;33958;48.404;10.598;2022-07-03T01:29:38;12.50;99.90
47658;DHT22;33958;48.404;10.598;2022-07-03T01:32:11;12.50;99.90
47658;DHT22;33958;48.404;10.598;2022-07-03T01:34:43;12.50;99.90
47658;DHT22;33958;48.404;10.598;2022-07-03T01:37:14;12.40;99.90
47658;DHT22;33958;48.404;10.598;2022-07-03T01:39:44;12.20;99.90
47658;DHT22;33958;48.404;10.598;2022-07-03T01:42:23;12.00;99.90
47658;DHT22;33958;48.404;10.598;2022-07-03T01:44:51;11.90;99.90
47658;DHT22;33958;48.404;10.598;2022-07-03T01:47:21;12.00;99.90
47658;DHT22;33958;48.404;10.598;2022-07-03T01:49:54;12.10;99.90
47658;DHT22;33958;48.404;10.598;2022-07-03T01:52:22;12.20;99.90
47658;DHT22;33958;48.404;10.598;2022-07-03T01:55:09;12.20;99.90
47658;DHT22;33958;48.404;10.598;2022-07-03T01:57:46;12.30;99.90
47658;DHT22;33958;48.404;10.598;2022-07-03T02:00:23;12.30;99.90
47658;DHT22;33958;48.404;10.598;2022-07-03T02:03:04;12.20;99.90
47658;DHT22;33958;48.404;10.598;2022-07-03T02:11:17;11.70;99.90
47658;DHT22;33958;48.404;10.598;2022-07-03T02:16:26;11.80;99.90
47658;DHT22;33958;48.404;10.598;2022-07-03T02:19:04;11.70;99.90
47658;DHT22;33958;48.404;10.598;2022-07-03T02:21:32;11.80;99.90
47658;DHT22;33958;48.404;10.598;2022-07-03T02:24:27;12.00;99.90
47658;DHT22;33958;48.404;10.598;2022-07-03T02:27:03;12.00;99.90
47658;DHT22;33958;48.404;10.598;2022-07-03T02:29:43;11.90;99.90
47658;DHT22;33958;48.404;10.598;2022-07-03T02:32:17;11.90;99.90
47658;DHT22;33958;48.404;10.598;2022-07-03T02:34:52;11.80;99.90
47658;DHT22;33958;48.404;10.598;2022-07-03T02:37:22;11.70;99.90
47658;DHT22;33958;48.404;10.598;2022-07-03T02:39:57;11.60;99.90
47658;DHT22;33958;48.404;10.598;2022-07-03T02:42:48;11.70;99.90
47658;DHT22;33958;48.404;10.598;2022-07-03T02:45:20;11.80;99.90
47658;DHT22;33958;48.404;10.598;2022-07-03T02:48:11;11.70;99.90
47658;DHT22;33958;48.404;10.598;2022-07-03T02:50:40;11.70;99.90
47658;DHT22;33958;48.404;10.598;2022-07-03T02:53:11;11.60;99.90
47658;DHT22;33958;48.404;10.598;2022-07-03T02:55:46;11.60;99.90
47658;DHT22;33958;48.404;10.598;2022-07-03T03:01:13;11.60;99.90
47658;DHT22;33958;48.404;10.598;2022-07-03T03:03:49;11.50;99.90
47658;DHT22;33958;48.404;10.598;2022-07-03T03:06:20;11.50;99.90
47658;DHT22;33958;48.404;10.598;2022-07-03T03:08:49;11.40;99.90
47658;DHT22;33958;48.404;10.598;2022-07-03T03:11:22;11.40;99.90
47658;DHT22;33958;48.404;10.598;2022-07-03T03:13:52;11.30;99.90
47658;DHT22;33958;48.404;10.598;2022-07-03T03:16:21;11.30;99.90
47658;DHT22;33958;48.404;10.598;2022-07-03T03:18:48;11.50;99.90
47658;DHT22;33958;48.404;10.598;2022-07-03T03:21:17;11.60;99.90
47658;DHT22;33958;48.404;10.598;2022-07-03T03:23:51;11.50;99.90
47658;DHT22;33958;48.404;10.598;2022-07-03T03:26:23;11.60;99.90
47658;DHT22;33958;48.404;10.598;2022-07-03T03:28:51;11.60;99.90
47658;DHT22;33958;48.404;10.598;2022-07-03T03:31:18;11.60;99.90
47658;DHT22;33958;48.404;10.598;2022-07-03T03:33:48;11.60;99.90
47658;DHT22;33958;48.404;10.598;2022-07-03T03:36:18;11.50;99.90
47658;DHT22;33958;48.404;10.598;2022-07-03T03:38:46;11.50;99.90
47658;DHT22;33958;48.404;10.598;2022-07-03T03:41:13;11.50;99.90
47658;DHT22;33958;48.404;10.598;2022-07-03T03:43:43;11.60;99.90
47658;DHT22;33958;48.404;10.598;2022-07-03T03:46:10;11.60;99.90
47658;DHT22;33958;48.404;10.598;2022-07-03T03:48:37;11.60;99.90
47658;DHT22;33958;48.404;10.598;2022-07-03T03:51:05;11.70;99.90
47658;DHT22;33958;48.404;10.598;2022-07-03T03:53:34;11.90;99.90
47658;DHT22;33958;48.404;10.598;2022-07-03T03:56:11;11.70;99.90
47658;DHT22;33958;48.404;10.598;2022-07-03T03:58:39;11.50;99.90
47658;DHT22;33958;48.404;10.598;2022-07-03T04:01:08;11.60;99.90
47658;DHT22;33958;48.404;10.598;2022-07-03T04:03:36;11.80;99.90
47658;DHT22;33958;48.404;10.598;2022-07-03T04:06:04;11.80;99.90
47658;DHT22;33958;48.404;10.598;2022-07-03T04:08:32;11.80;99.90
47658;DHT22;33958;48.404;10.598;2022-07-03T04:10:59;11.90;99.90
47658;DHT22;33958;48.404;10.598;2022-07-03T04:13:26;11.90;99.90
47658;DHT22;33958;48.404;10.598;2022-07-03T04:15:54;11.70;99.90
47658;DHT22;33958;48.404;10.598;2022-07-03T04:18:23;11.90;99.90
47658;DHT22;33958;48.404;10.598;2022-07-03T04:20:53;11.90;99.90
47658;DHT22;33958;48.404;10.598;2022-07-03T04:23:20;12.00;99.90
47658;DHT22;33958;48.404;10.598;2022-07-03T04:25:47;12.10;99.90
47658;DHT22;33958;48.404;10.598;2022-07-03T04:28:14;12.30;99.90
47658;DHT22;33958;48.404;10.598;2022-07-03T04:30:47;12.40;99.90
47658;DHT22;33958;48.404;10.598;2022-07-03T04:33:14;12.50;99.90
47658;DHT22;33958;48.404;10.598;2022-07-03T04:35:41;12.60;99.90
47658;DHT22;33958;48.404;10.598;2022-07-03T04:38:08;12.80;99.90
47658;DHT22;33958;48.404;10.598;2022-07-03T04:40:34;12.80;99.90
47658;DHT22;33958;48.404;10.598;2022-07-03T04:43:02;12.90;99.90
47658;DHT22;33958;48.404;10.598;2022-07-03T04:45:29;13.00;99.90
47658;DHT22;33958;48.404;10.598;2022-07-03T04:47:56;12.90;99.90
47658;DHT22;33958;48.404;10.598;2022-07-03T04:50:23;13.10;99.90
47658;DHT22;33958;48.404;10.598;2022-07-03T04:52:50;13.10;99.90
47658;DHT22;33958;48.404;10.598;2022-07-03T04:55:18;13.20;99.90
47658;DHT22;33958;48.404;10.598;2022-07-03T04:57:45;13.40;99.90
47658;DHT22;33958;48.404;10.598;2022-07-03T05:00:12;13.40;99.90
47658;DHT22;33958;48.404;10.598;2022-07-03T05:02:39;13.50;99.90
47658;DHT22;33958;48.404;10.598;2022-07-03T05:05:06;13.50;99.90
47658;DHT22;33958;48.404;10.598;2022-07-03T05:07:33;13.70;99.90
47658;DHT22;33958;48.404;10.598;2022-07-03T05:10:00;13.90;99.90
47658;DHT22;33958;48.404;10.598;2022-07-03T05:12:27;13.90;99.90
47658;DHT22;33958;48.404;10.598;2022-07-03T05:14:54;14.00;99.90
47658;DHT22;33958;48.404;10.598;2022-07-03T05:17:23;14.10;99.90
47658;DHT22;33958;48.404;10.598;2022-07-03T05:19:50;14.30;99.90
47658;DHT22;33958;48.404;10.598;2022-07-03T05:22:40;14.40;99.90
47658;DHT22;33958;48.404;10.598;2022-07-03T05:25:07;14.50;99.90
47658;DHT22;33958;48.404;10.598;2022-07-03T05:27:38;14.70;99.90
47658;DHT22;33958;48.404;10.598;2022-07-03T05:30:05;14.70;99.90
47658;DHT22;33958;48.404;10.598;2022-07-03T05:32:32;14.80;99.90
47658;DHT22;33958;48.404;10.598;2022-07-03T05:34:59;15.10;99.90
47658;DHT22;33958;48.404;10.598;2022-07-03T05:37:26;15.20;99.90
47658;DHT22;33958;48.404;10.598;2022-07-03T05:39:53;15.30;99.90
47658;DHT22;33958;48.404;10.598;2022-07-03T05:42:20;15.40;99.90
47658;DHT22;33958;48.404;10.598;2022-07-03T05:44:47;15.60;99.90
47658;DHT22;33958;48.404;10.598;2022-07-03T05:47:14;15.80;99.90
47658;DHT22;33958;48.404;10.598;2022-07-03T05:49:41;16.00;99.90
47658;DHT22;33958;48.404;10.598;2022-07-03T05:52:08;16.10;99.90
47658;DHT22;33958;48.404;10.598;2022-07-03T05:54:35;16.30;99.90
47658;DHT22;33958;48.404;10.598;2022-07-03T05:57:04;16.30;99.90
47658;DHT22;33958;48.404;10.598;2022-07-03T05:59:31;16.50;99.90
47658;DHT22;33958;48.404;10.598;2022-07-03T06:01:58;16.70;99.90
47658;DHT22;33958;48.404;10.598;2022-07-03T06:04:25;17.00;99.90
47658;DHT22;33958;48.404;10.598;2022-07-03T06:06:52;17.20;99.90
47658;DHT22;33958;48.404;10.598;2022-07-03T06:09:21;17.30;99.90
47658;DHT22;33958;48.404;10.598;2022-07-03T06:11:49;17.30;99.90
47658;DHT22;33958;48.404;10.598;2022-07-03T06:14:15;17.50;99.90
47658;DHT22;33958;48.404;10.598;2022-07-03T06:16:43;17.60;99.90
47658;DHT22;33958;48.404;10.598;2022-07-03T06:19:09;17.80;99.90
47658;DHT22;33958;48.404;10.598;2022-07-03T06:21:36;17.90;99.90
47658;DHT22;33958;48.404;10.598;2022-07-03T06:24:03;18.10;99.90
47658;DHT22;33958;48.404;10.598;2022-07-03T06:26:31;18.30;99.90
47658;DHT22;33958;48.404;10.598;2022-07-03T06:28:57;18.60;99.90
47658;DHT22;33958;48.404;10.598;2022-07-03T06:31:25;18.90;99.90
47658;DHT22;33958;48.404;10.598;2022-07-03T06:33:52;19.00;99.90
47658;DHT22;33958;48.404;10.598;2022-07-03T06:36:19;19.10;99.90
47658;DHT22;33958;48.404;10.598;2022-07-03T06:38:45;19.30;99.90
47658;DHT22;33958;48.404;10.598;2022-07-03T06:41:12;19.60;99.90
47658;DHT22;33958;48.404;10.598;2022-07-03T06:43:39;19.60;99.90
47658;DHT22;33958;48.404;10.598;2022-07-03T06:46:06;19.70;99.90
47658;DHT22;33958;48.404;10.598;2022-07-03T06:48:33;19.90;99.90
47658;DHT22;33958;48.404;10.598;2022-07-03T06:51:00;20.20;99.90
47658;DHT22;33958;48.404;10.598;2022-07-03T06:53:27;20.50;99.90
47658;DHT22;33958;48.404;10.598;2022-07-03T06:55:54;20.50;99.90
47658;DHT22;33958;48.404;10.598;2022-07-03T06:58:21;20.30;99.90
47658;DHT22;33958;48.404;10.598;2022-07-03T07:00:48;20.50;99.90
47658;DHT22;33958;48.404;10.598;2022-07-03T07:03:15;20.80;99.90
47658;DHT22;33958;48.404;10.598;2022-07-03T07:05:42;21.10;99.90
47658;DHT22;33958;48.404;10.598;2022-07-03T07:08:08;21.20;99.90
47658;DHT22;33958;48.404;10.598;2022-07-03T07:10:35;21.20;99.90
47658;DHT22;33958;48.404;10.598;2022-07-03T07:13:02;21.10;99.90
47658;DHT22;33958;48.404;10.598;2022-07-03T07:15:30;21.00;99.90
47658;DHT22;33958;48.404;10.598;2022-07-03T07:17:57;21.40;99.90
47658;DHT22;33958;48.404;10.598;2022-07-03T07:20:24;21.20;99.90
47658;DHT22;33958;48.404;10.598;2022-07-03T07:22:51;21.40;99.90
47658;DHT22;33958;48.404;10.598;2022-07-03T07:25:18;21.40;99.60
47658;DHT22;33958;48.404;10.598;2022-07-03T07:27:44;21.50;99.30
47658;DHT22;33958;48.404;10.598;2022-07-03T07:30:11;21.60;99.40
47658;DHT22;33958;48.404;10.598;2022-07-03T07:32:38;21.90;99.00
47658;DHT22;33958;48.404;10.598;2022-07-03T07:35:06;21.80;97.70
47658;DHT22;33958;48.404;10.598;2022-07-03T07:37:33;22.00;97.10
47658;DHT22;33958;48.404;10.598;2022-07-03T07:40:00;22.20;97.30
47658;DHT22;33958;48.404;10.598;2022-07-03T07:42:26;22.40;96.60
47658;DHT22;33958;48.404;10.598;2022-07-03T07:44:54;22.00;96.80
47658;DHT22;33958;48.404;10.598;2022-07-03T07:47:21;22.30;96.70
47658;DHT22;33958;48.404;10.598;2022-07-03T07:49:49;22.60;96.30
47658;DHT22;33958;48.404;10.598;2022-07-03T07:52:16;22.60;96.50
47658;DHT22;33958;48.404;10.598;2022-07-03T07:54:44;22.80;95.00
47658;DHT22;33958;48.404;10.598;2022-07-03T07:57:11;22.60;95.60
47658;DHT22;33958;48.404;10.598;2022-07-03T07:59:38;22.90;96.00
47658;DHT22;33958;48.404;10.598;2022-07-03T08:02:11;22.90;94.60
47658;DHT22;33958;48.404;10.598;2022-07-03T08:04:57;22.90;94.10
47658;DHT22;33958;48.404;10.598;2022-07-03T08:07:42;23.00;94.40
47658;DHT22;33958;48.404;10.598;2022-07-03T08:10:09;23.40;92.80
47658;DHT22;33958;48.404;10.598;2022-07-03T08:12:36;23.80;92.70
47658;DHT22;33958;48.404;10.598;2022-07-03T08:15:03;24.00;91.50
47658;DHT22;33958;48.404;10.598;2022-07-03T08:17:30;23.90;90.70
47658;DHT22;33958;48.404;10.598;2022-07-03T08:19:57;24.40;91.30
47658;DHT22;33958;48.404;10.598;2022-07-03T08:22:24;24.50;91.00
47658;DHT22;33958;48.404;10.598;2022-07-03T08:24:51;25.00;88.90
47658;DHT22;33958;48.404;10.598;2022-07-03T08:27:18;25.20;86.00
47658;DHT22;33958;48.404;10.598;2022-07-03T08:29:46;25.70;83.80
47658;DHT22;33958;48.404;10.598;2022-07-03T08:32:13;25.70;84.60
47658;DHT22;33958;48.404;10.598;2022-07-03T08:34:40;25.60;82.40
47658;DHT22;33958;48.404;10.598;2022-07-03T08:37:07;26.20;81.90
47658;DHT22;33958;48.404;10.598;2022-07-03T08:39:35;26.80;78.40
47658;DHT22;33958;48.404;10.598;2022-07-03T08:42:02;26.70;74.90
47658;DHT22;33958;48.404;10.598;2022-07-03T08:44:30;26.50;72.30
47658;DHT22;33958;48.404;10.598;2022-07-03T08:46:59;26.50;68.50
47658;DHT22;33958;48.404;10.598;2022-07-03T08:49:27;26.50;68.40
47658;DHT22;33958;48.404;10.598;2022-07-03T08:51:55;26.80;70.60
47658;DHT22;33958;48.404;10.598;2022-07-03T08:54:22;27.30;69.90
47658;DHT22;33958;48.404;10.598;2022-07-03T08:56:49;27.20;71.00
47658;DHT22;33958;48.404;10.598;2022-07-03T08:59:17;27.20;70.00
47658;DHT22;33958;48.404;10.598;2022-07-03T09:01:46;27.30;69.90
47658;DHT22;33958;48.404;10.598;2022-07-03T09:04:13;27.70;69.90
47658;DHT22;33958;48.404;10.598;2022-07-03T09:06:41;27.10;68.20
47658;DHT22;33958;48.404;10.598;2022-07-03T09:09:09;27.60;69.00
47658;DHT22;33958;48.404;10.598;2022-07-03T09:11:39;27.50;64.90
47658;DHT22;33958;48.404;10.598;2022-07-03T09:14:06;27.50;66.20
47658;DHT22;33958;48.404;10.598;2022-07-03T09:16:36;27.30;67.30
47658;DHT22;33958;48.404;10.598;2022-07-03T09:19:04;26.90;65.20
47658;DHT22;33958;48.404;10.598;2022-07-03T09:21:39;27.20;64.80
47658;DHT22;33958;48.404;10.598;2022-07-03T09:24:08;27.80;65.40
47658;DHT22;33958;48.404;10.598;2022-07-03T09:26:50;27.90;64.80
47658;DHT22;33958;48.404;10.598;2022-07-03T09:29:17;28.10;62.60
47658;DHT22;33958;48.404;10.598;2022-07-03T09:31:53;28.00;61.50
47658;DHT22;33958;48.404;10.598;2022-07-03T09:34:21;28.00;63.30
47658;DHT22;33958;48.404;10.598;2022-07-03T09:36:50;27.50;65.20
47658;DHT22;33958;48.404;10.598;2022-07-03T09:42:03;28.20;64.60
47658;DHT22;33958;48.404;10.598;2022-07-03T09:44:37;28.20;65.80
47658;DHT22;33958;48.404;10.598;2022-07-03T09:47:18;28.10;61.90
47658;DHT22;33958;48.404;10.598;2022-07-03T09:49:55;28.50;61.30
47658;DHT22;33958;48.404;10.598;2022-07-03T09:52:39;28.60;61.30
47658;DHT22;33958;48.404;10.598;2022-07-03T10:00:19;28.90;59.80
47658;DHT22;33958;48.404;10.598;2022-07-03T10:03:05;29.20;58.60
47658;DHT22;33958;48.404;10.598;2022-07-03T10:05:37;28.50;57.40
47658;DHT22;33958;48.404;10.598;2022-07-03T10:08:05;28.80;55.00
47658;DHT22;33958;48.404;10.598;2022-07-03T10:10:43;29.20;55.00
47658;DHT22;33958;48.404;10.598;2022-07-03T10:13:12;29.70;54.40
47658;DHT22;33958;48.404;10.598;2022-07-03T10:15:39;28.90;56.00
47658;DHT22;33958;48.404;10.598;2022-07-03T10:18:13;28.80;57.40
47658;DHT22;33958;48.404;10.598;2022-07-03T10:23:10;29.40;54.30
47658;DHT22;33958;48.404;10.598;2022-07-03T10:25:41;29.80;56.00
47658;DHT22;33958;48.404;10.598;2022-07-03T10:28:15;29.80;54.00
47658;DHT22;33958;48.404;10.598;2022-07-03T10:30:47;29.50;51.60
47658;DHT22;33958;48.404;10.598;2022-07-03T10:33:14;29.70;54.40
47658;DHT22;33958;48.404;10.598;2022-07-03T10:35:44;30.40;50.20
47658;DHT22;33958;48.404;10.598;2022-07-03T10:38:38;29.70;49.60
47658;DHT22;33958;48.404;10.598;2022-07-03T10:44:00;30.10;51.10
47658;DHT22;33958;48.404;10.598;2022-07-03T10:46:46;29.80;52.70
47658;DHT22;33958;48.404;10.598;2022-07-03T10:49:13;29.70;51.60
47658;DHT22;33958;48.404;10.598;2022-07-03T10:51:52;29.70;52.30
47658;DHT22;33958;48.404;10.598;2022-07-03T10:54:48;29.60;50.70
47658;DHT22;33958;48.404;10.598;2022-07-03T10:57:15;29.90;51.90
47658;DHT22;33958;48.404;10.598;2022-07-03T11:13:08;30.20;49.10
47658;DHT22;33958;48.404;10.598;2022-07-03T11:15:47;30.10;49.80
47658;DHT22;33958;48.404;10.598;2022-07-03T11:18:18;30.70;50.00
47658;DHT22;33958;48.404;10.598;2022-07-03T11:26:22;30.10;49.90
47658;DHT22;33958;48.404;10.598;2022-07-03T11:28:50;30.60;49.10
47658;DHT22;33958;48.404;10.598;2022-07-03T11:31:20;30.70;49.70
47658;DHT22;33958;48.404;10.598;2022-07-03T11:38:48;30.20;50.20
47658;DHT22;33958;48.404;10.598;2022-07-03T11:41:19;30.60;49.00
47658;DHT22;33958;48.404;10.598;2022-07-03T11:43:49;30.20;48.60
47658;DHT22;33958;48.404;10.598;2022-07-03T11:46:18;30.20;48.80
47658;DHT22;33958;48.404;10.598;2022-07-03T11:48:46;30.80;48.80
47658;DHT22;33958;48.404;10.598;2022-07-03T11:51:13;30.40;49.10
47658;DHT22;33958;48.404;10.598;2022-07-03T11:53:41;29.90;50.30
47658;DHT22;33958;48.404;10.598;2022-07-03T11:56:17;30.70;49.70
47658;DHT22;33958;48.404;10.598;2022-07-03T11:58:50;30.50;49.60
47658;DHT22;33958;48.404;10.598;2022-07-03T12:04:12;30.80;50.70
47658;DHT22;33958;48.404;10.598;2022-07-03T12:06:50;30.60;50.30
47658;DHT22;33958;48.404;10.598;2022-07-03T12:09:37;30.60;49.50
47658;DHT22;33958;48.404;10.598;2022-07-03T12:12:11;31.10;50.30
47658;DHT22;33958;48.404;10.598;2022-07-03T12:14:45;30.70;48.10
47658;DHT22;33958;48.404;10.598;2022-07-03T12:17:13;30.80;50.60
47658;DHT22;33958;48.404;10.598;2022-07-03T12:19:48;31.30;49.00
47658;DHT22;33958;48.404;10.598;2022-07-03T12:22:28;31.30;49.90
47658;DHT22;33958;48.404;10.598;2022-07-03T12:25:02;30.60;49.60
47658;DHT22;33958;48.404;10.598;2022-07-03T12:27:32;31.40;49.90
47658;DHT22;33958;48.404;10.598;2022-07-03T12:30:01;31.50;49.20
47658;DHT22;33958;48.404;10.598;2022-07-03T12:32:28;31.60;50.90
47658;DHT22;33958;48.404;10.598;2022-07-03T12:34:55;31.60;47.50
47658;DHT22;33958;48.404;10.598;2022-07-03T12:37:36;31.10;49.70
47658;DHT22;33958;48.404;10.598;2022-07-03T12:40:06;31.40;49.70
47658;DHT22;33958;48.404;10.598;2022-07-03T12:42:43;31.40;49.40
47658;DHT22;33958;48.404;10.598;2022-07-03T12:45:13;32.40;49.50
47658;DHT22;33958;48.404;10.598;2022-07-03T12:47:43;32.50;48.10
47658;DHT22;33958;48.404;10.598;2022-07-03T12:50:11;32.00;48.20
47658;DHT22;33958;48.404;10.598;2022-07-03T12:52:55;32.80;49.70
47658;DHT22;33958;48.404;10.598;2022-07-03T12:58:08;32.10;48.20
47658;DHT22;33958;48.404;10.598;2022-07-03T13:00:53;31.90;49.90
47658;DHT22;33958;48.404;10.598;2022-07-03T13:03:30;31.90;50.60
47658;DHT22;33958;48.404;10.598;2022-07-03T13:06:20;31.30;49.20
47658;DHT22;33958;48.404;10.598;2022-07-03T13:08:56;31.70;51.20
47658;DHT22;33958;48.404;10.598;2022-07-03T13:11:35;31.60;49.10
47658;DHT22;33958;48.404;10.598;2022-07-03T13:14:04;31.40;48.50
47658;DHT22;33958;48.404;10.598;2022-07-03T13:16:52;31.40;49.60
47658;DHT22;33958;48.404;10.598;2022-07-03T13:19:20;32.00;50.10
47658;DHT22;33958;48.404;10.598;2022-07-03T13:21:49;31.90;47.90
47658;DHT22;33958;48.404;10.598;2022-07-03T13:24:17;31.90;50.70
47658;DHT22;33958;48.404;10.598;2022-07-03T13:26:45;31.80;49.10
47658;DHT22;33958;48.404;10.598;2022-07-03T13:29:18;32.00;49.10
47658;DHT22;33958;48.404;10.598;2022-07-03T13:31:45;31.70;50.50
47658;DHT22;33958;48.404;10.598;2022-07-03T13:34:13;31.30;49.90
47658;DHT22;33958;48.404;10.598;2022-07-03T13:36:39;31.60;49.00
47658;DHT22;33958;48.404;10.598;2022-07-03T13:39:07;31.90;48.70
47658;DHT22;33958;48.404;10.598;2022-07-03T13:41:35;32.30;49.50
47658;DHT22;33958;48.404;10.598;2022-07-03T13:44:03;32.30;49.70
47658;DHT22;33958;48.404;10.598;2022-07-03T13:46:30;31.90;50.80
47658;DHT22;33958;48.404;10.598;2022-07-03T13:48:57;32.40;49.40
47658;DHT22;33958;48.404;10.598;2022-07-03T13:51:24;32.40;49.90
47658;DHT22;33958;48.404;10.598;2022-07-03T13:53:51;32.30;50.40
47658;DHT22;33958;48.404;10.598;2022-07-03T13:56:18;32.40;48.90
47658;DHT22;33958;48.404;10.598;2022-07-03T13:58:45;32.30;50.30
47658;DHT22;33958;48.404;10.598;2022-07-03T14:01:18;31.90;49.50
47658;DHT22;33958;48.404;10.598;2022-07-03T14:03:46;31.70;50.60
47658;DHT22;33958;48.404;10.598;2022-07-03T14:06:13;31.80;50.20
47658;DHT22;33958;48.404;10.598;2022-07-03T14:08:40;32.50;51.00
47658;DHT22;33958;48.404;10.598;2022-07-03T14:11:07;32.10;51.20
47658;DHT22;33958;48.404;10.598;2022-07-03T14:13:34;32.70;51.30
47658;DHT22;33958;48.404;10.598;2022-07-03T14:16:01;32.30;50.80
47658;DHT22;33958;48.404;10.598;2022-07-03T14:18:28;32.50;49.60
47658;DHT22;33958;48.404;10.598;2022-07-03T14:20:55;33.10;50.20
47658;DHT22;33958;48.404;10.598;2022-07-03T14:23:22;33.50;51.60
47658;DHT22;33958;48.404;10.598;2022-07-03T14:25:49;33.40;49.30
47658;DHT22;33958;48.404;10.598;2022-07-03T14:28:15;33.80;48.70
47658;DHT22;33958;48.404;10.598;2022-07-03T14:31:01;32.70;49.30
47658;DHT22;33958;48.404;10.598;2022-07-03T14:33:47;33.00;50.10
47658;DHT22;33958;48.404;10.598;2022-07-03T14:36:14;34.00;49.40
47658;DHT22;33958;48.404;10.598;2022-07-03T14:39:00;33.20;50.00
47658;DHT22;33958;48.404;10.598;2022-07-03T14:41:27;32.80;50.20
47658;DHT22;33958;48.404;10.598;2022-07-03T14:43:54;32.70;49.80
47658;DHT22;33958;48.404;10.598;2022-07-03T14:46:21;33.40;48.80
47658;DHT22;33958;48.404;10.598;2022-07-03T14:48:48;33.90;46.90
47658;DHT22;33958;48.404;10.598;2022-07-03T14:51:15;34.40;49.80
47658;DHT22;33958;48.404;10.598;2022-07-03T14:53:45;34.40;48.60
47658;DHT22;33958;48.404;10.598;2022-07-03T14:56:17;34.60;46.80
47658;DHT22;33958;48.404;10.598;2022-07-03T14:58:46;34.20;46.70
47658;DHT22;33958;48.404;10.598;2022-07-03T15:01:16;34.80;47.40
47658;DHT22;33958;48.404;10.598;2022-07-03T15:03:59;35.20;48.60
47658;DHT22;33958;48.404;10.598;2022-07-03T15:06:28;35.60;47.30
47658;DHT22;33958;48.404;10.598;2022-07-03T15:09:00;36.10;45.20
47658;DHT22;33958;48.404;10.598;2022-07-03T15:11:33;36.10;46.90
47658;DHT22;33958;48.404;10.598;2022-07-03T15:14:20;36.80;47.00
47658;DHT22;33958;48.404;10.598;2022-07-03T15:16:47;38.80;45.30
47658;DHT22;33958;48.404;10.598;2022-07-03T15:19:16;36.30;45.20
47658;DHT22;33958;48.404;10.598;2022-07-03T15:21:45;36.50;45.20
47658;DHT22;33958;48.404;10.598;2022-07-03T15:24:13;36.60;45.00
47658;DHT22;33958;48.404;10.598;2022-07-03T15:26:41;36.30;45.30
47658;DHT22;33958;48.404;10.598;2022-07-03T15:29:13;36.90;43.50
47658;DHT22;33958;48.404;10.598;2022-07-03T15:31:40;38.40;43.00
47658;DHT22;33958;48.404;10.598;2022-07-03T15:34:07;38.60;43.50
47658;DHT22;33958;48.404;10.598;2022-07-03T15:36:51;37.80;43.70
47658;DHT22;33958;48.404;10.598;2022-07-03T15:39:30;36.60;44.30
47658;DHT22;33958;48.404;10.598;2022-07-03T15:42:10;37.20;43.80
47658;DHT22;33958;48.404;10.598;2022-07-03T15:50:38;37.00;43.70
47658;DHT22;33958;48.404;10.598;2022-07-03T15:53:13;38.20;43.40
47658;DHT22;33958;48.404;10.598;2022-07-03T15:55:42;38.00;42.70
47658;DHT22;33958;48.404;10.598;2022-07-03T15:58:12;38.30;42.30
47658;DHT22;33958;48.404;10.598;2022-07-03T16:00:40;41.10;41.80
47658;DHT22;33958;48.404;10.598;2022-07-03T16:03:28;39.30;40.80
47658;DHT22;33958;48.404;10.598;2022-07-03T16:06:02;38.90;41.90
47658;DHT22;33958;48.404;10.598;2022-07-03T16:08:31;38.30;41.40
47658;DHT22;33958;48.404;10.598;2022-07-03T16:10:59;38.50;42.10
47658;DHT22;33958;48.404;10.598;2022-07-03T16:13:27;37.80;41.20
47658;DHT22;33958;48.404;10.598;2022-07-03T16:15:57;38.20;41.30
47658;DHT22;33958;48.404;10.598;2022-07-03T16:18:25;37.90;41.30
47658;DHT22;33958;48.404;10.598;2022-07-03T16:20:54;37.80;42.10
47658;DHT22;33958;48.404;10.598;2022-07-03T16:23:22;38.80;40.00
47658;DHT22;33958;48.404;10.598;2022-07-03T16:25:49;38.70;40.90
47658;DHT22;33958;48.404;10.598;2022-07-03T16:28:20;38.30;42.40
47658;DHT22;33958;48.404;10.598;2022-07-03T16:30:50;36.30;41.70
47658;DHT22;33958;48.404;10.598;2022-07-03T16:33:26;37.20;41.00
47658;DHT22;33958;48.404;10.598;2022-07-03T16:36:08;37.70;41.80
47658;DHT22;33958;48.404;10.598;2022-07-03T16:39:14;37.30;41.90